Aérodrome :
LOGIN :

S'inscrire | Disclaimer

   EN    FR    IT 

 










Légende :    VFR   VFR Marginal   IFR   IFR Intensif   IFR Très Intensif
Visi : 
Plafond : 
>= 8 km
>= 3000ft
5 à 8 km
1000 à 3000 ft
1500m à 5 km
500 à 1000 ft
800 à 1500m
200 à 500 ft
< 800m
< 200 ft
Symboles :   Orages  Brouillard  Fortes neiges  Fortes précipitations  Vent > 20 kt
SIGMETs :   Divers  Orages  Givrage  Turbulence  Onde Orograph.  Cendres Volcan.







- Altitude de l'aérodrome : 1306 ft
- Code IATA : ACH


LSZR - Alten Rhein

DERNIER METAR :
  • 171120Z 26007KT 230V290 9999 FEW045 BKN060 02/M04 Q1024 NOSIG RMK C

METARs EXPIRÉS :
  • 171050Z 27006KT 9999 FEW045 BKN060 02/M03 Q1024 NOSIG RMK C
  • 171020Z 26004KT 200V320 9999 FEW050 BKN060 02/M04 Q1024 NOSIG RMK B
  • 170950Z 24004KT 200V300 9999 FEW050 BKN060 02/M04 Q1024 NOSIG RMK B
  • 170920Z 25006KT 210V290 9999 FEW050 BKN060 02/M04 Q1023 NOSIG RMK A
  • 170850Z 25008KT 210V290 9999 FEW050 BKN060 02/M04 Q1023 NOSIG RMK A

TAF TAF LSZR
Valide du 17 à 12h jusqu'au 17 à 21h UTC


171125Z 1712/1721 27007KT 9999 FEW045 BKN060
PROB30
TEMPO 1712/1716 4000 -SHSN
ATIS : +41 71 858 51 66
Pas de NOTAMs connus pour ce terrain.



MET'MAP, la Météo Aéronautique d'un coup d'oeil ! - Copyright ORBIFLY Décembre 2007 - Disclaimer

ORBIFLY MET'MAP TEAM :

Programmation & Développement : Alexandra Zaïnal
Conception & Développement : Baudouin d'Aumeries
Co-Programmation & Développement : Marc-Olivier Méhu
Soutien technique & logistique : Manuel Goepfert

Contact : metmap@orbifly.com




SOURCES & CREDITS :

   NOAA